sim
Sign-in with your pilot id or email,
or register
Callsign
Passwort

Schedule Details

Flight Number: DLH2787
Departure: Agadir Al Massira Airport (GMAD) at 11:55
Arrival: Munich Airport (EDDM) at 15:45
Route: Lufthansa Passenger Schedule. Enter filed route here before submitting Pirep.

Weather Information
Getting current METAR information for GMAD 262000Z 20013KT CAVOK 21/17 Q1013 NOSIG
Getting current METAR information for EDDM 261950Z 24017KT 9999 -RA BKN022 BKN035 07/04 Q1001 NOSIG

Schedule Frequency

Route Map